sensor_id;sensor_type;location;lat;lon;timestamp;pressure;altitude;pressure_sealevel;temperature;humidity
61908;BME280;47864;52.526;19.672;2023-04-22T00:01:00;100935.25;;;8.62;92.50
61908;BME280;47864;52.526;19.672;2023-04-22T00:03:02;100939.81;;;8.60;92.72
61908;BME280;47864;52.526;19.672;2023-04-22T00:05:04;100930.31;;;8.48;93.16
61908;BME280;47864;52.526;19.672;2023-04-22T00:07:06;100948.66;;;8.50;93.47
61908;BME280;47864;52.526;19.672;2023-04-22T00:09:08;100933.84;;;8.37;94.04
61908;BME280;47864;52.526;19.672;2023-04-22T00:11:09;100937.94;;;8.30;95.51
61908;BME280;47864;52.526;19.672;2023-04-22T00:13:11;100927.72;;;8.26;94.29
61908;BME280;47864;52.526;19.672;2023-04-22T00:15:12;100940.03;;;8.16;97.03
61908;BME280;47864;52.526;19.672;2023-04-22T00:17:14;100934.72;;;8.16;94.66
61908;BME280;47864;52.526;19.672;2023-04-22T00:19:15;100925.16;;;8.15;97.47
61908;BME280;47864;52.526;19.672;2023-04-22T00:21:17;100923.34;;;8.15;96.19
61908;BME280;47864;52.526;19.672;2023-04-22T00:23:18;100908.63;;;8.01;96.13
61908;BME280;47864;52.526;19.672;2023-04-22T00:25:19;100933.34;;;8.00;96.91
61908;BME280;47864;52.526;19.672;2023-04-22T00:27:21;100926.19;;;7.91;99.59
61908;BME280;47864;52.526;19.672;2023-04-22T00:29:24;100907.44;;;7.62;100.00
61908;BME280;47864;52.526;19.672;2023-04-22T00:31:26;100930.59;;;7.70;100.00
61908;BME280;47864;52.526;19.672;2023-04-22T00:33:27;100919.69;;;7.63;100.00
61908;BME280;47864;52.526;19.672;2023-04-22T00:35:29;100914.53;;;7.51;100.00
61908;BME280;47864;52.526;19.672;2023-04-22T00:37:30;100918.00;;;7.62;100.00
61908;BME280;47864;52.526;19.672;2023-04-22T00:39:32;100920.56;;;7.53;100.00
61908;BME280;47864;52.526;19.672;2023-04-22T00:41:34;100918.53;;;7.45;100.00
61908;BME280;47864;52.526;19.672;2023-04-22T00:43:35;100918.69;;;7.33;100.00
61908;BME280;47864;52.526;19.672;2023-04-22T00:45:38;100918.81;;;7.31;100.00
61908;BME280;47864;52.526;19.672;2023-04-22T00:47:40;100922.97;;;7.34;100.00
61908;BME280;47864;52.526;19.672;2023-04-22T00:49:42;100914.13;;;7.23;100.00
61908;BME280;47864;52.526;19.672;2023-04-22T00:51:43;100922.50;;;7.17;100.00
61908;BME280;47864;52.526;19.672;2023-04-22T00:53:45;100895.56;;;6.92;100.00
61908;BME280;47864;52.526;19.672;2023-04-22T00:55:46;100903.00;;;6.98;100.00
61908;BME280;47864;52.526;19.672;2023-04-22T00:57:49;100921.09;;;7.13;100.00
61908;BME280;47864;52.526;19.672;2023-04-22T00:59:52;100917.50;;;7.03;100.00
61908;BME280;47864;52.526;19.672;2023-04-22T01:01:54;100917.97;;;6.97;100.00
61908;BME280;47864;52.526;19.672;2023-04-22T01:03:56;100920.84;;;6.94;100.00
61908;BME280;47864;52.526;19.672;2023-04-22T01:05:58;100912.47;;;6.89;100.00
61908;BME280;47864;52.526;19.672;2023-04-22T01:08:00;100913.03;;;6.93;100.00
61908;BME280;47864;52.526;19.672;2023-04-22T01:10:03;100911.72;;;6.76;100.00
61908;BME280;47864;52.526;19.672;2023-04-22T01:12:05;100887.03;;;6.55;100.00
61908;BME280;47864;52.526;19.672;2023-04-22T01:14:07;100911.03;;;6.74;100.00
61908;BME280;47864;52.526;19.672;2023-04-22T01:16:08;100913.25;;;6.67;100.00
61908;BME280;47864;52.526;19.672;2023-04-22T01:18:11;100885.59;;;6.51;100.00
61908;BME280;47864;52.526;19.672;2023-04-22T01:20:12;100915.31;;;6.64;100.00
61908;BME280;47864;52.526;19.672;2023-04-22T01:22:14;100888.72;;;6.56;100.00
61908;BME280;47864;52.526;19.672;2023-04-22T01:24:18;100910.03;;;6.64;100.00
61908;BME280;47864;52.526;19.672;2023-04-22T01:26:19;100906.56;;;6.63;100.00
61908;BME280;47864;52.526;19.672;2023-04-22T01:28:22;100917.59;;;6.57;100.00
61908;BME280;47864;52.526;19.672;2023-04-22T01:30:23;100905.00;;;6.49;100.00
61908;BME280;47864;52.526;19.672;2023-04-22T01:32:25;100879.78;;;6.34;100.00
61908;BME280;47864;52.526;19.672;2023-04-22T01:34:27;100920.78;;;6.38;100.00
61908;BME280;47864;52.526;19.672;2023-04-22T01:36:28;100901.59;;;6.36;100.00
61908;BME280;47864;52.526;19.672;2023-04-22T01:38:30;100913.59;;;6.52;100.00
61908;BME280;47864;52.526;19.672;2023-04-22T01:40:32;100914.31;;;6.42;100.00
61908;BME280;47864;52.526;19.672;2023-04-22T01:42:34;100900.13;;;6.21;100.00
61908;BME280;47864;52.526;19.672;2023-04-22T01:44:36;100906.13;;;6.34;100.00
61908;BME280;47864;52.526;19.672;2023-04-22T01:46:37;100912.50;;;6.43;100.00
61908;BME280;47864;52.526;19.672;2023-04-22T01:48:39;100906.97;;;6.35;100.00
61908;BME280;47864;52.526;19.672;2023-04-22T01:50:41;100902.28;;;6.16;100.00
61908;BME280;47864;52.526;19.672;2023-04-22T01:52:42;100923.25;;;6.29;100.00
61908;BME280;47864;52.526;19.672;2023-04-22T01:54:44;100913.78;;;6.26;100.00
61908;BME280;47864;52.526;19.672;2023-04-22T01:56:51;100923.00;;;6.21;100.00
61908;BME280;47864;52.526;19.672;2023-04-22T01:58:53;100903.81;;;6.07;100.00
61908;BME280;47864;52.526;19.672;2023-04-22T02:00:54;100904.41;;;6.11;100.00
61908;BME280;47864;52.526;19.672;2023-04-22T02:02:56;100901.75;;;6.11;100.00
61908;BME280;47864;52.526;19.672;2023-04-22T02:04:57;100915.03;;;6.09;100.00
61908;BME280;47864;52.526;19.672;2023-04-22T02:06:59;100897.53;;;5.97;100.00
61908;BME280;47864;52.526;19.672;2023-04-22T02:09:01;100916.25;;;6.05;100.00
61908;BME280;47864;52.526;19.672;2023-04-22T02:11:02;100890.41;;;5.87;100.00
61908;BME280;47864;52.526;19.672;2023-04-22T02:13:04;100916.47;;;6.02;100.00
61908;BME280;47864;52.526;19.672;2023-04-22T02:15:06;100911.59;;;6.09;100.00
61908;BME280;47864;52.526;19.672;2023-04-22T02:17:07;100917.03;;;5.95;100.00
61908;BME280;47864;52.526;19.672;2023-04-22T02:19:09;100913.16;;;5.64;100.00
61908;BME280;47864;52.526;19.672;2023-04-22T02:21:11;100912.47;;;5.73;100.00
61908;BME280;47864;52.526;19.672;2023-04-22T02:23:12;100898.38;;;5.74;100.00
61908;BME280;47864;52.526;19.672;2023-04-22T02:25:14;100913.16;;;5.88;100.00
61908;BME280;47864;52.526;19.672;2023-04-22T02:27:15;100902.06;;;5.71;100.00
61908;BME280;47864;52.526;19.672;2023-04-22T02:29:17;100897.19;;;5.78;100.00
61908;BME280;47864;52.526;19.672;2023-04-22T02:31:19;100887.00;;;5.73;100.00
61908;BME280;47864;52.526;19.672;2023-04-22T02:33:20;100885.16;;;5.63;100.00
61908;BME280;47864;52.526;19.672;2023-04-22T02:35:21;100904.97;;;5.80;100.00
61908;BME280;47864;52.526;19.672;2023-04-22T02:37:23;100886.25;;;5.71;100.00
61908;BME280;47864;52.526;19.672;2023-04-22T02:39:24;100913.38;;;5.85;100.00
61908;BME280;47864;52.526;19.672;2023-04-22T02:41:26;100909.50;;;5.78;100.00
61908;BME280;47864;52.526;19.672;2023-04-22T02:43:28;100905.81;;;5.80;100.00
61908;BME280;47864;52.526;19.672;2023-04-22T02:45:29;100900.75;;;5.77;100.00
61908;BME280;47864;52.526;19.672;2023-04-22T02:47:30;100903.25;;;5.67;100.00
61908;BME280;47864;52.526;19.672;2023-04-22T02:49:32;100906.72;;;5.68;100.00
61908;BME280;47864;52.526;19.672;2023-04-22T02:51:36;100904.41;;;5.63;100.00
61908;BME280;47864;52.526;19.672;2023-04-22T02:53:38;100903.19;;;5.56;100.00
61908;BME280;47864;52.526;19.672;2023-04-22T02:55:42;100897.63;;;5.48;100.00
61908;BME280;47864;52.526;19.672;2023-04-22T02:57:44;100900.38;;;5.47;100.00
61908;BME280;47864;52.526;19.672;2023-04-22T02:59:45;100910.34;;;5.54;100.00
61908;BME280;47864;52.526;19.672;2023-04-22T03:01:46;100895.00;;;5.48;100.00
61908;BME280;47864;52.526;19.672;2023-04-22T03:03:48;100906.97;;;5.52;100.00
61908;BME280;47864;52.526;19.672;2023-04-22T03:05:50;100897.34;;;5.40;100.00
61908;BME280;47864;52.526;19.672;2023-04-22T03:07:52;100911.28;;;5.53;100.00
61908;BME280;47864;52.526;19.672;2023-04-22T03:09:54;100908.66;;;5.53;100.00
61908;BME280;47864;52.526;19.672;2023-04-22T03:11:55;100898.78;;;5.44;100.00
61908;BME280;47864;52.526;19.672;2023-04-22T03:13:57;100900.09;;;5.39;100.00
61908;BME280;47864;52.526;19.672;2023-04-22T03:15:58;100919.00;;;5.44;100.00
61908;BME280;47864;52.526;19.672;2023-04-22T03:18:00;100914.38;;;5.47;100.00
61908;BME280;47864;52.526;19.672;2023-04-22T03:20:01;100899.69;;;5.32;100.00
61908;BME280;47864;52.526;19.672;2023-04-22T03:22:03;100907.47;;;5.33;100.00
61908;BME280;47864;52.526;19.672;2023-04-22T03:24:04;100905.59;;;5.23;100.00
61908;BME280;47864;52.526;19.672;2023-04-22T03:26:06;100918.31;;;5.29;100.00
61908;BME280;47864;52.526;19.672;2023-04-22T03:28:07;100919.50;;;5.25;100.00
61908;BME280;47864;52.526;19.672;2023-04-22T03:30:09;100910.34;;;5.18;100.00
61908;BME280;47864;52.526;19.672;2023-04-22T03:32:11;100890.91;;;5.08;100.00
61908;BME280;47864;52.526;19.672;2023-04-22T03:34:12;100895.22;;;5.09;100.00
61908;BME280;47864;52.526;19.672;2023-04-22T03:36:13;100905.31;;;5.15;100.00
61908;BME280;47864;52.526;19.672;2023-04-22T03:38:15;100889.88;;;5.10;100.00
61908;BME280;47864;52.526;19.672;2023-04-22T03:40:16;100911.69;;;5.23;100.00
61908;BME280;47864;52.526;19.672;2023-04-22T03:42:18;100915.06;;;5.25;100.00
61908;BME280;47864;52.526;19.672;2023-04-22T03:44:19;100918.53;;;5.26;100.00
61908;BME280;47864;52.526;19.672;2023-04-22T03:46:21;100916.84;;;5.25;100.00
61908;BME280;47864;52.526;19.672;2023-04-22T03:48:22;100907.72;;;5.18;100.00
61908;BME280;47864;52.526;19.672;2023-04-22T03:50:24;100907.88;;;5.27;100.00
61908;BME280;47864;52.526;19.672;2023-04-22T03:52:26;100924.59;;;5.39;100.00
61908;BME280;47864;52.526;19.672;2023-04-22T03:54:27;100920.28;;;5.38;100.00
61908;BME280;47864;52.526;19.672;2023-04-22T03:56:29;100897.25;;;5.42;100.00
61908;BME280;47864;52.526;19.672;2023-04-22T03:58:31;100906.94;;;5.65;100.00
61908;BME280;47864;52.526;19.672;2023-04-22T04:00:32;100922.25;;;6.19;100.00
61908;BME280;47864;52.526;19.672;2023-04-22T04:02:34;100894.72;;;6.91;100.00
61908;BME280;47864;52.526;19.672;2023-04-22T04:04:35;100912.63;;;7.53;100.00
61908;BME280;47864;52.526;19.672;2023-04-22T04:06:38;100924.03;;;8.17;100.00
61908;BME280;47864;52.526;19.672;2023-04-22T04:08:39;100928.22;;;8.52;100.00
61908;BME280;47864;52.526;19.672;2023-04-22T04:10:41;100931.69;;;8.52;100.00
61908;BME280;47864;52.526;19.672;2023-04-22T04:12:42;100926.09;;;9.27;100.00
61908;BME280;47864;52.526;19.672;2023-04-22T04:14:44;100934.28;;;9.74;100.00
61908;BME280;47864;52.526;19.672;2023-04-22T04:16:46;100936.41;;;10.09;100.00
61908;BME280;47864;52.526;19.672;2023-04-22T04:18:50;100920.66;;;10.26;94.35
61908;BME280;47864;52.526;19.672;2023-04-22T04:20:52;100898.75;;;10.81;90.29
61908;BME280;47864;52.526;19.672;2023-04-22T04:22:53;100928.38;;;11.50;83.57
61908;BME280;47864;52.526;19.672;2023-04-22T04:24:55;100925.34;;;12.08;82.22
61908;BME280;47864;52.526;19.672;2023-04-22T04:26:56;100940.47;;;12.77;78.66
61908;BME280;47864;52.526;19.672;2023-04-22T04:28:58;100930.84;;;13.10;75.87
61908;BME280;47864;52.526;19.672;2023-04-22T04:31:00;100924.72;;;13.09;75.89
61908;BME280;47864;52.526;19.672;2023-04-22T04:33:02;100934.34;;;13.94;71.78
61908;BME280;47864;52.526;19.672;2023-04-22T04:35:04;100940.38;;;14.21;71.13
61908;BME280;47864;52.526;19.672;2023-04-22T04:37:06;100942.91;;;14.55;67.75
61908;BME280;47864;52.526;19.672;2023-04-22T04:39:07;100890.63;;;14.76;66.43
61908;BME280;47864;52.526;19.672;2023-04-22T04:41:09;100926.94;;;15.57;64.01
61908;BME280;47864;52.526;19.672;2023-04-22T04:43:10;100941.19;;;15.80;62.71
61908;BME280;47864;52.526;19.672;2023-04-22T04:45:12;100945.78;;;15.16;62.04
61908;BME280;47864;52.526;19.672;2023-04-22T04:47:13;100945.00;;;15.86;63.81
61908;BME280;47864;52.526;19.672;2023-04-22T04:49:14;100944.00;;;16.10;61.56
61908;BME280;47864;52.526;19.672;2023-04-22T04:51:16;100936.59;;;15.97;61.81
61908;BME280;47864;52.526;19.672;2023-04-22T04:53:20;100899.19;;;15.50;64.13
61908;BME280;47864;52.526;19.672;2023-04-22T04:55:22;100938.53;;;16.26;60.81
61908;BME280;47864;52.526;19.672;2023-04-22T04:57:23;100931.06;;;16.59;60.22
61908;BME280;47864;52.526;19.672;2023-04-22T04:59:25;100935.81;;;16.11;61.65
61908;BME280;47864;52.526;19.672;2023-04-22T05:01:26;100923.09;;;15.51;62.76
61908;BME280;47864;52.526;19.672;2023-04-22T05:03:28;100885.81;;;15.58;62.61
61908;BME280;47864;52.526;19.672;2023-04-22T05:05:29;100939.72;;;16.23;60.50
61908;BME280;47864;52.526;19.672;2023-04-22T05:07:31;100921.88;;;16.61;59.77
61908;BME280;47864;52.526;19.672;2023-04-22T05:09:32;100931.97;;;17.18;57.89
61908;BME280;47864;52.526;19.672;2023-04-22T05:11:34;100932.94;;;17.46;57.63
61908;BME280;47864;52.526;19.672;2023-04-22T05:13:35;100913.88;;;17.56;55.43
61908;BME280;47864;52.526;19.672;2023-04-22T05:15:37;100938.53;;;17.81;55.94
61908;BME280;47864;52.526;19.672;2023-04-22T05:17:38;100941.63;;;18.20;53.76
61908;BME280;47864;52.526;19.672;2023-04-22T05:19:40;100940.94;;;18.12;53.22
61908;BME280;47864;52.526;19.672;2023-04-22T05:21:42;100919.63;;;18.53;51.87
61908;BME280;47864;52.526;19.672;2023-04-22T05:23:43;100936.50;;;18.96;52.02
61908;BME280;47864;52.526;19.672;2023-04-22T05:25:45;100930.69;;;19.27;51.00
61908;BME280;47864;52.526;19.672;2023-04-22T05:27:46;100917.66;;;19.30;50.47
61908;BME280;47864;52.526;19.672;2023-04-22T05:29:48;100935.38;;;19.53;48.89
61908;BME280;47864;52.526;19.672;2023-04-22T05:31:49;100931.09;;;19.71;48.55
61908;BME280;47864;52.526;19.672;2023-04-22T05:33:51;100923.47;;;19.75;46.54
61908;BME280;47864;52.526;19.672;2023-04-22T05:35:52;100926.19;;;20.01;46.71
61908;BME280;47864;52.526;19.672;2023-04-22T05:37:54;100937.84;;;20.28;46.94
61908;BME280;47864;52.526;19.672;2023-04-22T05:39:55;100911.53;;;20.43;45.51
61908;BME280;47864;52.526;19.672;2023-04-22T05:41:57;100937.84;;;20.22;43.80
61908;BME280;47864;52.526;19.672;2023-04-22T05:43:58;100922.75;;;20.60;44.58
61908;BME280;47864;52.526;19.672;2023-04-22T05:45:59;100930.59;;;20.16;45.65
61908;BME280;47864;52.526;19.672;2023-04-22T05:48:01;100927.19;;;19.81;45.46
61908;BME280;47864;52.526;19.672;2023-04-22T05:50:03;100903.13;;;19.66;46.35
61908;BME280;47864;52.526;19.672;2023-04-22T05:52:04;100925.78;;;19.91;44.79
61908;BME280;47864;52.526;19.672;2023-04-22T05:54:06;100913.59;;;20.08;41.75
61908;BME280;47864;52.526;19.672;2023-04-22T05:56:07;100928.28;;;20.19;40.01
61908;BME280;47864;52.526;19.672;2023-04-22T05:58:09;100922.84;;;19.86;40.16
61908;BME280;47864;52.526;19.672;2023-04-22T06:00:10;100927.50;;;20.32;42.46
61908;BME280;47864;52.526;19.672;2023-04-22T06:02:12;100905.13;;;20.64;40.65
61908;BME280;47864;52.526;19.672;2023-04-22T06:04:14;100926.22;;;20.94;40.04
61908;BME280;47864;52.526;19.672;2023-04-22T06:06:16;100923.56;;;20.61;38.30
61908;BME280;47864;52.526;19.672;2023-04-22T06:08:18;100926.03;;;20.88;37.00
61908;BME280;47864;52.526;19.672;2023-04-22T06:10:19;100925.84;;;20.70;37.08
61908;BME280;47864;52.526;19.672;2023-04-22T06:12:21;100900.47;;;21.04;35.77
61908;BME280;47864;52.526;19.672;2023-04-22T06:14:22;100928.00;;;21.39;35.26
61908;BME280;47864;52.526;19.672;2023-04-22T06:16:24;100919.81;;;20.81;36.53
61908;BME280;47864;52.526;19.672;2023-04-22T06:18:25;100927.72;;;20.83;36.14
61908;BME280;47864;52.526;19.672;2023-04-22T06:20:28;100897.19;;;20.10;36.49
61908;BME280;47864;52.526;19.672;2023-04-22T06:22:30;100929.56;;;20.43;36.48
61908;BME280;47864;52.526;19.672;2023-04-22T06:24:31;100912.38;;;20.83;35.16
61908;BME280;47864;52.526;19.672;2023-04-22T06:26:33;100884.59;;;20.63;37.15
61908;BME280;47864;52.526;19.672;2023-04-22T06:28:34;100924.19;;;20.36;36.23
61908;BME280;47864;52.526;19.672;2023-04-22T06:30:36;100897.66;;;20.46;35.06
61908;BME280;47864;52.526;19.672;2023-04-22T06:32:37;100917.34;;;20.73;35.22
61908;BME280;47864;52.526;19.672;2023-04-22T06:34:39;100911.31;;;20.32;35.73
61908;BME280;47864;52.526;19.672;2023-04-22T06:36:40;100914.81;;;19.93;38.49
61908;BME280;47864;52.526;19.672;2023-04-22T06:38:42;100917.75;;;20.31;36.14
61908;BME280;47864;52.526;19.672;2023-04-22T06:40:43;100914.84;;;20.72;34.99
61908;BME280;47864;52.526;19.672;2023-04-22T06:42:45;100916.31;;;20.35;36.35
61908;BME280;47864;52.526;19.672;2023-04-22T06:44:46;100887.09;;;20.58;35.97
61908;BME280;47864;52.526;19.672;2023-04-22T06:46:48;100916.72;;;20.45;40.21
61908;BME280;47864;52.526;19.672;2023-04-22T06:48:49;100911.91;;;20.93;40.78
61908;BME280;47864;52.526;19.672;2023-04-22T06:50:51;100897.88;;;20.65;39.90
61908;BME280;47864;52.526;19.672;2023-04-22T06:52:53;100895.34;;;20.89;39.67
61908;BME280;47864;52.526;19.672;2023-04-22T06:54:54;100895.81;;;21.38;40.08
61908;BME280;47864;52.526;19.672;2023-04-22T06:56:56;100913.72;;;21.70;39.54
61908;BME280;47864;52.526;19.672;2023-04-22T06:58:57;100908.31;;;21.32;38.07
61908;BME280;47864;52.526;19.672;2023-04-22T07:00:59;100910.88;;;20.94;37.37
61908;BME280;47864;52.526;19.672;2023-04-22T07:03:00;100911.91;;;21.64;37.16
61908;BME280;47864;52.526;19.672;2023-04-22T07:05:02;100873.81;;;20.63;37.59
61908;BME280;47864;52.526;19.672;2023-04-22T07:07:03;100911.88;;;21.71;39.10
61908;BME280;47864;52.526;19.672;2023-04-22T07:09:05;100920.47;;;20.83;38.65
61908;BME280;47864;52.526;19.672;2023-04-22T07:11:07;100916.63;;;21.11;39.83
61908;BME280;47864;52.526;19.672;2023-04-22T07:13:09;100911.09;;;20.79;39.38
61908;BME280;47864;52.526;19.672;2023-04-22T07:15:10;100913.94;;;21.24;37.80
61908;BME280;47864;52.526;19.672;2023-04-22T07:17:12;100899.56;;;21.75;35.97
61908;BME280;47864;52.526;19.672;2023-04-22T07:19:13;100909.03;;;21.97;36.61
61908;BME280;47864;52.526;19.672;2023-04-22T07:21:15;100900.44;;;21.69;36.34
61908;BME280;47864;52.526;19.672;2023-04-22T07:23:17;100921.72;;;21.52;36.92
61908;BME280;47864;52.526;19.672;2023-04-22T07:25:18;100916.19;;;21.27;37.43
61908;BME280;47864;52.526;19.672;2023-04-22T07:27:20;100921.56;;;21.40;37.91
61908;BME280;47864;52.526;19.672;2023-04-22T07:29:22;100908.88;;;21.85;37.20
61908;BME280;47864;52.526;19.672;2023-04-22T07:31:23;100912.19;;;20.65;36.12
61908;BME280;47864;52.526;19.672;2023-04-22T07:33:24;100899.22;;;21.00;37.22
61908;BME280;47864;52.526;19.672;2023-04-22T07:35:26;100909.25;;;20.73;37.22
61908;BME280;47864;52.526;19.672;2023-04-22T07:37:27;100923.50;;;21.00;38.16
61908;BME280;47864;52.526;19.672;2023-04-22T07:39:29;100904.47;;;20.82;38.40
61908;BME280;47864;52.526;19.672;2023-04-22T07:41:30;100926.06;;;20.82;37.32
61908;BME280;47864;52.526;19.672;2023-04-22T07:43:32;100921.94;;;21.44;37.89
61908;BME280;47864;52.526;19.672;2023-04-22T07:45:33;100907.34;;;21.64;37.61
61908;BME280;47864;52.526;19.672;2023-04-22T07:47:35;100895.06;;;21.24;40.79
61908;BME280;47864;52.526;19.672;2023-04-22T07:49:37;100908.75;;;21.74;36.79
61908;BME280;47864;52.526;19.672;2023-04-22T07:51:39;100906.53;;;21.57;39.28
61908;BME280;47864;52.526;19.672;2023-04-22T07:53:41;100910.09;;;21.51;37.61
61908;BME280;47864;52.526;19.672;2023-04-22T07:55:43;100904.00;;;22.07;36.78
61908;BME280;47864;52.526;19.672;2023-04-22T07:57:45;100911.50;;;22.55;36.19
61908;BME280;47864;52.526;19.672;2023-04-22T07:59:50;100912.09;;;22.07;35.66
61908;BME280;47864;52.526;19.672;2023-04-22T08:01:52;100907.66;;;21.81;38.53
61908;BME280;47864;52.526;19.672;2023-04-22T08:03:53;100908.94;;;21.72;38.31
61908;BME280;47864;52.526;19.672;2023-04-22T08:05:55;100909.72;;;21.41;38.98
61908;BME280;47864;52.526;19.672;2023-04-22T08:07:57;100909.50;;;21.43;37.07
61908;BME280;47864;52.526;19.672;2023-04-22T08:09:58;100881.22;;;20.87;40.49
61908;BME280;47864;52.526;19.672;2023-04-22T08:12:00;100904.25;;;20.77;39.51
61908;BME280;47864;52.526;19.672;2023-04-22T08:14:01;100903.47;;;20.43;40.28
61908;BME280;47864;52.526;19.672;2023-04-22T08:16:03;100910.09;;;20.74;40.23
61908;BME280;47864;52.526;19.672;2023-04-22T08:18:05;100916.09;;;20.36;39.72
61908;BME280;47864;52.526;19.672;2023-04-22T08:20:07;100909.22;;;20.27;40.66
61908;BME280;47864;52.526;19.672;2023-04-22T08:22:09;100886.88;;;20.60;37.76
61908;BME280;47864;52.526;19.672;2023-04-22T08:24:10;100903.63;;;20.29;38.60
61908;BME280;47864;52.526;19.672;2023-04-22T08:26:12;100906.50;;;19.94;41.27
61908;BME280;47864;52.526;19.672;2023-04-22T08:28:13;100882.66;;;19.78;42.29
61908;BME280;47864;52.526;19.672;2023-04-22T08:30:15;100894.94;;;19.46;43.35
61908;BME280;47864;52.526;19.672;2023-04-22T08:32:16;100899.25;;;20.01;42.73
61908;BME280;47864;52.526;19.672;2023-04-22T08:34:18;100903.25;;;20.32;40.19
61908;BME280;47864;52.526;19.672;2023-04-22T08:36:20;100901.34;;;19.99;40.82
61908;BME280;47864;52.526;19.672;2023-04-22T08:38:22;100884.13;;;19.81;39.19
61908;BME280;47864;52.526;19.672;2023-04-22T08:40:23;100874.38;;;19.80;42.85
61908;BME280;47864;52.526;19.672;2023-04-22T08:42:26;100877.34;;;20.18;40.14
61908;BME280;47864;52.526;19.672;2023-04-22T08:44:28;100894.34;;;20.38;37.37
61908;BME280;47864;52.526;19.672;2023-04-22T08:46:32;100898.44;;;20.27;38.11
61908;BME280;47864;52.526;19.672;2023-04-22T08:48:33;100892.88;;;20.22;38.61
61908;BME280;47864;52.526;19.672;2023-04-22T08:50:37;100871.31;;;20.22;36.33
61908;BME280;47864;52.526;19.672;2023-04-22T08:52:38;100885.22;;;20.39;37.62
61908;BME280;47864;52.526;19.672;2023-04-22T08:54:42;100892.69;;;20.63;37.06
61908;BME280;47864;52.526;19.672;2023-04-22T08:56:44;100893.13;;;20.34;37.69
61908;BME280;47864;52.526;19.672;2023-04-22T08:58:46;100862.59;;;20.13;37.23
61908;BME280;47864;52.526;19.672;2023-04-22T09:00:48;100892.66;;;20.30;37.12
61908;BME280;47864;52.526;19.672;2023-04-22T09:02:49;100892.81;;;19.83;37.52
61908;BME280;47864;52.526;19.672;2023-04-22T09:04:52;100888.06;;;19.85;38.54
61908;BME280;47864;52.526;19.672;2023-04-22T09:06:55;100867.91;;;19.61;38.16
61908;BME280;47864;52.526;19.672;2023-04-22T09:08:56;100877.34;;;20.44;39.16
61908;BME280;47864;52.526;19.672;2023-04-22T09:10:58;100877.75;;;20.61;35.21
61908;BME280;47864;52.526;19.672;2023-04-22T09:13:02;100880.63;;;20.20;36.35
61908;BME280;47864;52.526;19.672;2023-04-22T09:15:06;100885.22;;;20.39;34.70
61908;BME280;47864;52.526;19.672;2023-04-22T09:17:07;100882.31;;;20.60;34.85
61908;BME280;47864;52.526;19.672;2023-04-22T09:19:13;100878.38;;;20.56;34.21
61908;BME280;47864;52.526;19.672;2023-04-22T09:21:15;100872.75;;;20.71;34.07
61908;BME280;47864;52.526;19.672;2023-04-22T09:23:17;100876.09;;;20.66;33.80
61908;BME280;47864;52.526;19.672;2023-04-22T09:25:20;100880.25;;;20.56;34.95
61908;BME280;47864;52.526;19.672;2023-04-22T09:27:23;100842.09;;;20.65;37.34
61908;BME280;47864;52.526;19.672;2023-04-22T09:29:28;100870.69;;;20.66;35.41
61908;BME280;47864;52.526;19.672;2023-04-22T09:31:31;100873.19;;;20.55;35.53
61908;BME280;47864;52.526;19.672;2023-04-22T09:33:37;100849.53;;;20.70;37.77
61908;BME280;47864;52.526;19.672;2023-04-22T09:35:40;100873.78;;;20.76;36.46
61908;BME280;47864;52.526;19.672;2023-04-22T09:37:41;100846.66;;;21.29;37.78
61908;BME280;47864;52.526;19.672;2023-04-22T09:39:50;100868.69;;;21.19;36.14
61908;BME280;47864;52.526;19.672;2023-04-22T09:41:53;100861.88;;;21.04;34.70
61908;BME280;47864;52.526;19.672;2023-04-22T09:43:59;100857.38;;;20.78;35.68
61908;BME280;47864;52.526;19.672;2023-04-22T09:46:01;100856.88;;;21.14;38.39
61908;BME280;47864;52.526;19.672;2023-04-22T09:48:18;100835.69;;;21.24;37.12
61908;BME280;47864;52.526;19.672;2023-04-22T09:50:23;100830.72;;;21.21;36.20
61908;BME280;47864;52.526;19.672;2023-04-22T09:52:25;100849.88;;;21.00;36.07
61908;BME280;47864;52.526;19.672;2023-04-22T09:54:26;100850.03;;;21.18;36.23
61908;BME280;47864;52.526;19.672;2023-04-22T09:56:41;100839.19;;;21.31;38.30
61908;BME280;47864;52.526;19.672;2023-04-22T09:58:43;100831.88;;;21.38;35.97
61908;BME280;47864;52.526;19.672;2023-04-22T10:00:47;100837.16;;;21.13;35.25
61908;BME280;47864;52.526;19.672;2023-04-22T10:02:49;100828.91;;;20.95;35.32
61908;BME280;47864;52.526;19.672;2023-04-22T10:04:51;100847.78;;;21.53;33.49
61908;BME280;47864;52.526;19.672;2023-04-22T10:06:52;100841.66;;;21.71;31.47
61908;BME280;47864;52.526;19.672;2023-04-22T10:08:54;100832.25;;;21.48;32.40
61908;BME280;47864;52.526;19.672;2023-04-22T10:10:55;100817.84;;;21.23;36.07
61908;BME280;47864;52.526;19.672;2023-04-22T10:12:57;100823.25;;;21.10;36.88
61908;BME280;47864;52.526;19.672;2023-04-22T10:14:58;100830.25;;;21.31;37.04
61908;BME280;47864;52.526;19.672;2023-04-22T10:17:00;100830.34;;;21.04;38.66
61908;BME280;47864;52.526;19.672;2023-04-22T10:19:04;100820.31;;;20.60;39.09
61908;BME280;47864;52.526;19.672;2023-04-22T10:21:06;100822.94;;;20.86;37.30
61908;BME280;47864;52.526;19.672;2023-04-22T10:23:18;100825.78;;;21.05;36.66
61908;BME280;47864;52.526;19.672;2023-04-22T10:25:24;100827.03;;;21.02;39.08
61908;BME280;47864;52.526;19.672;2023-04-22T10:27:26;100813.97;;;20.99;39.10
61908;BME280;47864;52.526;19.672;2023-04-22T10:29:35;100807.06;;;20.32;40.52